Time;durP1;ratioP1;P1;durP2;ratioP2;P2;SDS_P1;SDS_P2;PMS_P1;PMS_P2;Temp;Humidity;BMP_temperature;BMP_pressure;BME280_temperature;BME280_humidity;BME280_pressure;Samples;Min_cycle;Max_cycle;Signal;HPM_P1;HPM_P2
2023/01/26 00:01:22;;;;;;;34.25;6.10;;;;;;;22.60;53.36;100075.25;7311389;19;129698;-41
2023/01/26 00:03:48;;;;;;;46.95;6.80;;;;;;;22.61;53.47;100071.69;7312346;19;129412;-40
2023/01/26 00:06:16;;;;;;;25.13;5.07;;;;;;;22.63;54.34;100064.50;7310201;19;130261;-40
2023/01/26 00:08:44;;;;;;;55.65;7.53;;;;;;;22.59;52.66;100065.75;7310648;19;129394;-39
2023/01/26 00:11:13;;;;;;;24.80;5.05;;;;;;;22.55;53.86;100065.19;7313570;19;129239;-38
2023/01/26 00:13:38;;;;;;;40.25;6.15;;;;;;;22.60;53.96;100070.03;7310453;19;129538;-38
2023/01/26 00:16:08;;;;;;;43.00;6.00;;;;;;;22.62;54.62;100068.09;7309403;19;130239;-39
2023/01/26 00:18:36;;;;;;;30.92;5.72;;;;;;;22.60;54.48;100049.06;7310920;19;131502;-39
2023/01/26 00:21:02;;;;;;;39.90;6.13;;;;;;;22.72;54.55;100063.72;7312191;19;129591;-39
2023/01/26 00:23:29;;;;;;;25.50;4.50;;;;;;;22.69;54.74;100066.59;7313871;19;129528;-40
2023/01/26 00:25:55;;;;;;;34.53;5.78;;;;;;;22.67;55.16;100066.75;7308169;19;129806;-40
2023/01/26 00:28:20;;;;;;;48.10;7.03;;;;;;;22.71;53.74;100065.50;7310561;19;129618;-39
2023/01/26 00:30:45;;;;;;;34.87;5.93;;;;;;;22.72;54.15;100063.72;7311588;19;129539;-39
2023/01/26 00:33:11;;;;;;;25.37;5.23;;;;;;;22.61;54.09;100050.72;7311311;19;129045;-38
2023/01/26 00:35:36;;;;;;;41.42;6.57;;;;;;;22.65;54.54;100036.38;7306005;19;129111;-38
2023/01/26 00:38:02;;;;;;;34.57;5.57;;;;;;;22.73;54.15;100054.88;7309469;19;129466;-40
2023/01/26 00:40:27;;;;;;;20.80;4.43;;;;;;;22.72;54.29;100047.97;7312469;19;129842;-40
2023/01/26 00:42:53;;;;;;;33.15;5.82;;;;;;;22.74;54.80;100043.44;7310605;19;129013;-38
2023/01/26 00:45:19;;;;;;;48.00;7.63;;;;;;;22.74;54.44;100043.44;7307925;19;129779;-39
2023/01/26 00:47:45;;;;;;;57.17;7.78;;;;;;;22.76;54.01;100044.09;7309211;19;130055;-39
2023/01/26 00:50:10;;;;;;;21.40;4.40;;;;;;;22.74;53.91;100046.88;7312552;19;129451;-38
2023/01/26 00:52:35;;;;;;;31.93;5.90;;;;;;;22.79;53.71;100051.72;7311458;19;128831;-39
2023/01/26 00:55:01;;;;;;;26.38;5.57;;;;;;;22.71;54.29;100046.34;7308769;19;129246;-40
2023/01/26 00:57:26;;;;;;;48.73;7.17;;;;;;;22.76;54.27;100044.09;7308529;19;130344;-38
2023/01/26 00:59:51;;;;;;;29.30;5.30;;;;;;;22.78;54.12;100042.19;7309350;19;129774;-39
2023/01/26 01:02:17;;;;;;;30.85;5.05;;;;;;;22.78;54.16;100036.94;7311669;19;129313;-40
2023/01/26 01:04:42;;;;;;;35.50;5.40;;;;;;;22.87;54.02;100051.88;7309213;19;129912;-39
2023/01/26 01:07:07;;;;;;;77.63;11.30;;;;;;;22.87;53.50;100036.13;7305161;19;129620;-37
2023/01/26 01:09:33;;;;;;;32.23;5.53;;;;;;;22.83;54.13;100045.22;7307181;19;129589;-40
2023/01/26 01:11:58;;;;;;;21.33;4.50;;;;;;;22.88;53.74;100036.00;7309453;19;129295;-39
2023/01/26 01:14:24;;;;;;;31.27;5.50;;;;;;;22.87;53.72;100041.38;7308522;19;130145;-41
2023/01/26 01:16:49;;;;;;;41.27;5.87;;;;;;;22.78;53.54;100036.94;7308227;19;129134;-39
2023/01/26 01:19:16;;;;;;;28.47;5.07;;;;;;;22.61;53.32;100040.25;7310199;19;130676;-41
2023/01/26 01:21:43;;;;;;;37.28;5.88;;;;;;;22.56;53.03;100031.97;7310485;19;129323;-40
2023/01/26 01:24:09;;;;;;;35.60;5.93;;;;;;;22.56;53.37;100030.16;7309226;19;129342;-38
2023/01/26 01:26:34;;;;;;;32.80;5.20;;;;;;;22.53;52.58;100019.09;7309250;19;129157;-40
2023/01/26 01:29:00;;;;;;;24.88;5.15;;;;;;;22.66;52.71;100038.84;7308721;19;129725;-38
2023/01/26 01:31:25;;;;;;;20.55;4.40;;;;;;;22.71;52.61;100017.50;7309872;19;129765;-39
2023/01/26 01:33:52;;;;;;;47.75;6.88;;;;;;;22.90;52.27;100033.22;7309376;19;129250;-38
2023/01/26 01:36:18;;;;;;;22.38;4.78;;;;;;;22.97;52.36;100032.53;7308855;19;130325;-39
2023/01/26 01:38:44;;;;;;;49.67;7.17;;;;;;;23.12;51.75;100022.47;7310180;19;129328;-41
2023/01/26 01:41:11;;;;;;;37.88;6.00;;;;;;;23.17;51.57;100028.13;7308014;19;129115;-39
2023/01/26 01:43:37;;;;;;;45.63;6.55;;;;;;;23.06;50.98;100005.50;7309339;19;129922;-40
2023/01/26 01:46:29;;;;;;;33.27;5.73;;;;;;;23.16;51.42;100021.22;7306336;19;129680;-41
2023/01/26 01:49:04;;;;;;;44.25;6.43;;;;;;;23.14;51.12;100013.47;7308098;19;129253;-41
2023/01/26 01:51:36;;;;;;;12.93;3.53;;;;;;;23.06;51.33;100004.66;7310828;19;129398;-38
2023/01/26 01:54:05;;;;;;;24.75;5.25;;;;;;;23.01;51.48;100005.06;7306138;19;130011;-40
2023/01/26 01:56:32;;;;;;;22.50;4.30;;;;;;;22.99;51.59;99995.72;7307397;19;129634;-35
2023/01/26 01:59:00;;;;;;;35.00;5.47;;;;;;;22.85;52.33;99975.97;7309077;19;129129;-39
2023/01/26 02:01:26;;;;;;;27.45;5.13;;;;;;;22.78;52.80;99982.72;7310743;19;129283;-40
2023/01/26 02:04:00;;;;;;;31.05;5.47;;;;;;;22.77;52.56;99988.09;7309000;19;130764;-39
2023/01/26 02:06:30;;;;;;;32.70;6.10;;;;;;;22.78;53.04;99984.50;7306086;19;130738;-39
2023/01/26 02:08:58;;;;;;;34.35;5.53;;;;;;;22.65;52.79;99968.22;7308516;19;129245;-36
2023/01/26 02:11:39;;;;;;;28.88;5.07;;;;;;;22.73;53.20;99979.69;7308292;19;129521;-39
2023/01/26 02:14:08;;;;;;;36.97;5.72;;;;;;;22.62;52.60;99977.22;7307504;19;130234;-39
2023/01/26 02:16:33;;;;;;;24.45;4.53;;;;;;;22.61;52.94;99980.78;7306212;19;129317;-38
2023/01/26 02:18:59;;;;;;;21.80;4.37;;;;;;;22.54;52.99;99978.84;7308124;19;129437;-39
2023/01/26 02:21:24;;;;;;;33.60;5.37;;;;;;;22.51;53.82;99971.25;7306110;19;129180;-39
2023/01/26 02:24:08;;;;;;;24.77;4.83;;;;;;;22.46;54.94;99970.81;7309389;19;129949;-46
2023/01/26 02:26:35;;;;;;;27.17;5.30;;;;;;;22.46;55.33;99968.19;7305923;19;130999;-36
2023/01/26 02:29:03;;;;;;;20.70;4.25;;;;;;;22.43;55.98;99958.00;7308462;19;129021;-37
2023/01/26 02:31:30;;;;;;;24.58;4.65;;;;;;;22.46;55.37;99957.72;7307102;19;129188;-40
2023/01/26 02:33:55;;;;;;;33.42;5.28;;;;;;;22.41;55.90;99939.75;7307899;19;130739;-39
2023/01/26 02:36:22;;;;;;;24.27;4.83;;;;;;;22.43;56.40;99939.66;7306956;19;130013;-40
2023/01/26 02:38:52;;;;;;;;;;;;;;;22.49;57.37;99946.97;7307593;19;129381;-40
2023/01/26 02:44:03;;;;;;;23.90;4.65;;;;;;;22.36;55.30;99925.44;7307216;19;129442;-38
2023/01/26 02:46:29;;;;;;;23.67;4.53;;;;;;;22.43;55.38;99937.84;7305109;19;129361;-41
2023/01/26 02:51:38;;;;;;;31.27;5.25;;;;;;;22.44;55.63;99918.56;7306513;19;129189;-38
2023/01/26 02:54:03;;;;;;;31.60;5.53;;;;;;;22.40;55.69;99925.03;7307406;19;129024;-41
2023/01/26 02:56:29;;;;;;;17.83;3.67;;;;;;;22.29;55.51;99906.81;7304201;19;129372;-41
2023/01/26 02:58:54;;;;;;;29.15;5.32;;;;;;;22.41;56.10;99918.00;7307058;19;129294;-39
2023/01/26 03:01:20;;;;;;;26.00;4.77;;;;;;;22.43;55.82;99924.75;7313937;19;129376;-39
2023/01/26 03:03:45;;;;;;;41.25;6.32;;;;;;;22.47;55.21;99922.69;7312967;19;129689;-41
2023/01/26 03:06:11;;;;;;;30.90;5.10;;;;;;;22.39;56.10;99926.00;7310946;19;130480;-41
2023/01/26 03:08:37;;;;;;;34.95;5.65;;;;;;;22.33;54.49;99905.56;7313042;19;130348;-38
2023/01/26 03:11:05;;;;;;;37.08;6.38;;;;;;;22.42;54.66;99927.50;7314128;19;129325;-41
2023/01/26 03:13:30;;;;;;;46.13;6.47;;;;;;;22.34;54.43;99907.25;7309851;19;130187;-37
2023/01/26 03:16:01;;;;;;;32.45;5.47;;;;;;;22.46;54.18;99916.59;7308948;19;130015;-39
2023/01/26 03:29:29;;;;;;;26.67;5.10;;;;;;;23.02;52.34;99911.50;7314280;19;129630;-41
2023/01/26 03:31:55;;;;;;;33.50;5.20;;;;;;;23.09;52.46;99921.28;7312326;19;129993;-41
2023/01/26 03:34:20;;;;;;;24.73;4.87;;;;;;;23.09;51.51;99916.03;7312741;19;130177;-40
2023/01/26 03:36:47;;;;;;;67.55;8.52;;;;;;;23.08;52.25;99908.31;7309614;19;130352;-39
2023/01/26 03:41:06;;;;;;;21.35;4.75;;;;;;;23.04;52.52;99907.75;7314249;19;129166;-40
2023/01/26 03:58:23;;;;;;;27.05;4.68;;;;;;;22.63;53.49;99899.41;7314370;19;130429;-39
2023/01/26 04:00:49;;;;;;;35.90;5.87;;;;;;;22.60;53.66;99897.06;7311007;19;131025;-38
2023/01/26 04:08:46;;;;;;;35.83;5.32;;;;;;;22.42;54.86;99882.97;7314373;19;129502;-40
2023/01/26 04:11:12;;;;;;;41.60;6.35;;;;;;;22.40;55.78;99885.72;7308930;19;128954;-39
2023/01/26 04:21:50;;;;;;;35.72;5.50;;;;;;;22.34;56.13;99874.97;7312162;19;129641;-40
2023/01/26 04:24:15;;;;;;;51.00;6.43;;;;;;;22.31;57.38;99876.09;7309941;19;129028;-39
2023/01/26 04:26:41;;;;;;;30.20;4.83;;;;;;;22.30;57.12;99876.19;7309640;19;129400;-38
2023/01/26 04:29:12;;;;;;;33.40;5.03;;;;;;;22.29;56.91;99877.19;7312369;19;130402;-41
2023/01/26 04:31:39;;;;;;;26.20;5.00;;;;;;;22.29;56.52;99880.63;7311457;19;129179;-38
2023/01/26 04:34:06;;;;;;;35.38;5.20;;;;;;;22.26;55.50;99877.44;7310331;19;129556;-40
2023/01/26 04:36:33;;;;;;;27.27;4.55;;;;;;;22.29;54.18;99871.94;7308943;19;129558;-38
2023/01/26 04:38:58;;;;;;;;;;;;;;;22.31;54.75;99868.22;7313181;19;130717;-38
2023/01/26 04:41:23;;;;;;;17.00;3.60;;;;;;;22.57;54.04;99868.50;7311348;19;129144;-39
2023/01/26 04:43:49;;;;;;;41.77;6.13;;;;;;;22.87;53.25;99857.84;7310940;19;129407;-38
2023/01/26 04:46:15;;;;;;;30.07;4.90;;;;;;;23.42;51.91;99861.44;7310340;19;129875;-38
2023/01/26 04:48:40;;;;;;;27.87;4.57;;;;;;;23.78;50.78;99856.13;7310380;19;129762;-37
2023/01/26 04:51:11;;;;;;;25.38;4.05;;;;;;;24.14;49.53;99857.84;7312708;19;129015;-38
2023/01/26 04:53:37;;;;;;;32.45;4.63;;;;;;;24.47;48.83;99861.59;7310138;19;130147;-39
2023/01/26 04:56:03;;;;;;;32.43;4.83;;;;;;;24.59;47.80;99859.56;7305623;19;129543;-38
2023/01/26 04:58:28;;;;;;;32.80;4.63;;;;;;;24.83;47.92;99851.88;7311180;19;129696;-38
2023/01/26 05:00:55;;;;;;;23.38;4.07;;;;;;;24.95;46.83;99848.84;7311127;19;129670;-40
2023/01/26 05:03:22;;;;;;;37.90;5.35;;;;;;;25.15;46.46;99852.91;7310234;19;129354;-38
2023/01/26 05:05:49;;;;;;;47.95;6.28;;;;;;;25.13;46.61;99859.28;7304740;19;129325;-39
2023/01/26 05:08:15;;;;;;;33.80;4.68;;;;;;;25.12;47.34;99860.28;7309999;19;129970;-39
2023/01/26 05:10:41;;;;;;;30.15;4.93;;;;;;;25.21;46.48;99865.44;7309822;19;129216;-38
2023/01/26 05:13:07;;;;;;;39.55;5.32;;;;;;;25.22;46.98;99864.44;7308627;19;129406;-38
2023/01/26 05:15:32;;;;;;;43.17;5.82;;;;;;;25.30;46.53;99861.03;7301469;19;129386;-40
2023/01/26 05:18:01;;;;;;;31.33;4.70;;;;;;;25.28;47.15;99861.19;7309633;19;130751;-40
2023/01/26 05:20:26;;;;;;;27.20;4.80;;;;;;;25.12;47.23;99852.38;7311174;19;130081;-41
2023/01/26 05:22:51;;;;;;;38.60;4.83;;;;;;;25.17;46.63;99855.38;7302638;19;130710;-39
2023/01/26 05:25:17;;;;;;;48.83;6.50;;;;;;;25.04;46.82;99842.63;7307522;19;129362;-40
2023/01/26 05:27:43;;;;;;;37.07;5.37;;;;;;;25.12;47.13;99865.56;7307902;19;129812;-39
2023/01/26 05:30:09;;;;;;;46.90;5.70;;;;;;;25.10;47.01;99872.78;7310275;19;129555;-39
2023/01/26 05:32:35;;;;;;;65.35;8.60;;;;;;;25.01;47.25;99873.69;7304830;19;129646;-39
2023/01/26 05:35:02;;;;;;;45.33;5.65;;;;;;;24.93;47.64;99877.09;7306928;19;129332;-40
2023/01/26 05:37:28;;;;;;;69.90;8.82;;;;;;;24.79;48.41;99866.31;7306219;19;131377;-39
2023/01/26 05:39:53;;;;;;;50.90;6.37;;;;;;;24.64;47.96;99865.19;7309132;19;130110;-38
2023/01/26 05:42:19;;;;;;;35.13;4.77;;;;;;;24.48;48.52;99858.81;7309727;19;129319;-39
2023/01/26 05:44:45;;;;;;;24.70;4.93;;;;;;;24.33;48.57;99862.94;7308066;19;129509;-40
2023/01/26 05:47:10;;;;;;;30.17;5.17;;;;;;;24.10;49.27;99845.16;7306365;19;129637;-39
2023/01/26 05:49:41;;;;;;;40.33;5.88;;;;;;;24.05;49.22;99858.75;7309229;19;128984;-40
2023/01/26 05:52:11;;;;;;;37.70;5.43;;;;;;;23.95;49.84;99857.94;7310347;19;129414;-39
2023/01/26 05:54:37;;;;;;;21.95;4.75;;;;;;;23.83;49.87;99853.88;7302951;19;131186;-38
2023/01/26 05:57:03;;;;;;;27.90;4.87;;;;;;;23.73;50.42;99863.63;7306910;19;129930;-40
2023/01/26 05:59:28;;;;;;;21.77;4.27;;;;;;;23.58;50.71;99861.63;7307371;19;129585;-38
2023/01/26 06:01:55;;;;;;;34.37;5.27;;;;;;;23.53;51.19;99862.06;7309575;19;129195;-41
2023/01/26 06:04:20;;;;;;;32.55;4.82;;;;;;;23.40;50.93;99837.97;7304127;19;129717;-39
2023/01/26 06:06:46;;;;;;;54.40;7.43;;;;;;;23.44;52.04;99857.69;7304935;19;129675;-40
2023/01/26 06:09:11;;;;;;;29.03;4.73;;;;;;;23.39;52.12;99864.34;7307012;19;128942;-40
2023/01/26 06:11:37;;;;;;;75.97;9.17;;;;;;;23.36;52.50;99869.88;7305585;19;129700;-36
2023/01/26 06:14:02;;;;;;;30.85;5.07;;;;;;;23.24;51.60;99863.94;7305962;19;130055;-39
2023/01/26 06:16:28;;;;;;;41.10;6.10;;;;;;;23.27;52.19;99871.56;7304591;19;130336;-38
2023/01/26 06:18:54;;;;;;;45.53;6.18;;;;;;;23.21;52.72;99872.94;7305843;19;129252;-38
2023/01/26 06:21:19;;;;;;;36.93;4.93;;;;;;;23.17;52.75;99876.00;7305665;19;129446;-38
2023/01/26 06:23:45;;;;;;;36.15;5.88;;;;;;;23.11;52.17;99877.38;7307313;19;130715;-41
2023/01/26 06:26:10;;;;;;;65.27;8.90;;;;;;;23.11;52.74;99876.56;7302766;19;131871;-39
2023/01/26 06:28:35;;;;;;;25.80;4.17;;;;;;;23.08;52.69;99882.09;7307828;19;130468;-38
2023/01/26 06:31:03;;;;;;;29.97;4.77;;;;;;;23.05;52.31;99879.75;7308260;19;130363;-38
2023/01/26 06:33:31;;;;;;;29.15;4.93;;;;;;;22.95;52.66;99876.31;7309019;19;131046;-38
2023/01/26 06:36:00;;;;;;;49.38;6.20;;;;;;;22.95;52.93;99881.56;7301967;19;129375;-41
2023/01/26 06:38:25;;;;;;;21.67;3.78;;;;;;;22.93;53.54;99880.88;7308701;19;129990;-40
2023/01/26 06:40:51;;;;;;;48.63;5.93;;;;;;;22.95;53.56;99879.78;7308388;19;129313;-41
2023/01/26 06:43:16;;;;;;;20.97;4.50;;;;;;;22.98;53.08;99876.88;7309114;19;129972;-36
2023/01/26 06:45:41;;;;;;;41.78;5.95;;;;;;;23.00;52.69;99877.56;7303168;19;129671;-40
2023/01/26 06:48:07;;;;;;;28.47;4.73;;;;;;;23.03;53.02;99879.91;7308039;19;129113;-40
2023/01/26 06:50:34;;;;;;;24.10;4.27;;;;;;;23.07;53.09;99880.44;7304684;19;129646;-40
2023/01/26 06:53:03;;;;;;;24.85;4.32;;;;;;;23.08;52.63;99874.22;7306883;19;129147;-39
2023/01/26 06:55:36;;;;;;;55.92;8.25;;;;;;;22.98;52.56;99855.06;7302946;19;129420;-40
2023/01/26 06:58:01;;;;;;;58.58;7.85;;;;;;;23.12;53.00;99863.28;7299659;19;130434;-40
2023/01/26 07:00:26;;;;;;;32.73;5.07;;;;;;;23.26;52.27;99859.38;7309046;19;129468;-40
2023/01/26 07:02:52;;;;;;;52.73;6.97;;;;;;;23.33;51.75;99860.50;7307035;19;130119;-40
2023/01/26 07:05:17;;;;;;;24.60;5.43;;;;;;;23.42;52.28;99870.13;7302639;19;129303;-39
2023/01/26 07:07:43;;;;;;;37.87;6.03;;;;;;;23.48;51.37;99877.44;7305891;19;129313;-41
2023/01/26 07:10:09;;;;;;;33.33;5.03;;;;;;;23.76;51.16;99868.59;7308130;19;129048;-39
2023/01/26 07:12:43;;;;;;;34.03;5.97;;;;;;;23.64;51.51;99861.88;7306761;19;129235;-40
2023/01/26 07:15:10;;;;;;;30.00;4.97;;;;;;;23.56;51.42;99855.69;7304620;19;130422;-40
2023/01/26 07:17:36;;;;;;;37.78;5.82;;;;;;;23.73;50.81;99868.88;7303830;19;129808;-38
2023/01/26 07:20:02;;;;;;;32.58;5.35;;;;;;;23.73;51.40;99863.63;7305683;19;130766;-38
2023/01/26 07:22:27;;;;;;;24.90;4.28;;;;;;;23.72;51.66;99866.38;7307323;19;129735;-42
2023/01/26 07:24:52;;;;;;;45.33;6.87;;;;;;;23.80;50.71;99854.16;7303621;19;129500;-38
2023/01/26 07:27:18;;;;;;;32.53;5.50;;;;;;;23.86;51.08;99861.47;7299576;19;129175;-37
2023/01/26 07:29:45;;;;;;;33.22;5.05;;;;;;;23.85;51.78;99859.81;7306852;19;129413;-39
2023/01/26 07:32:11;;;;;;;31.67;5.63;;;;;;;23.89;50.96;99860.34;7306324;19;129631;-40
2023/01/26 07:34:36;;;;;;;26.10;4.87;;;;;;;23.97;50.82;99861.25;7304828;19;129377;-38
2023/01/26 07:37:02;;;;;;;26.53;4.67;;;;;;;23.96;51.47;99858.78;7303927;19;128812;-41
2023/01/26 07:39:27;;;;;;;28.95;4.90;;;;;;;24.04;51.40;99866.78;7306779;19;129236;-39
2023/01/26 07:41:52;;;;;;;39.40;6.43;;;;;;;24.13;50.54;99858.81;7305402;19;129243;-38
2023/01/26 07:44:18;;;;;;;22.17;4.47;;;;;;;24.14;50.68;99868.38;7306340;19;130353;-41
2023/01/26 07:46:43;;;;;;;48.20;6.70;;;;;;;24.17;51.23;99859.34;7308802;19;130110;-40
2023/01/26 07:49:10;;;;;;;32.07;5.23;;;;;;;24.11;50.75;99858.13;7313793;19;128855;-37
2023/01/26 07:51:36;;;;;;;20.42;4.32;;;;;;;24.09;50.86;99862.72;7314398;19;130877;-41
2023/01/26 07:54:02;;;;;;;21.05;4.82;;;;;;;24.09;51.33;99867.16;7311766;19;130663;-40
2023/01/26 07:56:27;;;;;;;37.13;6.07;;;;;;;23.98;51.50;99862.13;7307611;19;128957;-40
2023/01/26 07:58:53;;;;;;;41.53;5.67;;;;;;;24.00;51.03;99863.63;7313596;19;129794;-37
2023/01/26 08:01:20;;;;;;;18.83;4.27;;;;;;;23.93;51.33;99867.75;7312888;19;130170;-39
2023/01/26 08:03:49;;;;;;;45.95;6.38;;;;;;;23.85;51.59;99857.19;7310097;19;129649;-39
2023/01/26 08:06:15;;;;;;;50.60;7.18;;;;;;;23.88;51.70;99856.88;7306598;19;130039;-40
2023/01/26 08:08:41;;;;;;;33.15;5.88;;;;;;;23.86;51.14;99861.47;7308812;19;130176;-38
2023/01/26 08:11:08;;;;;;;36.00;5.83;;;;;;;23.79;52.15;99867.44;7310026;19;130078;-39
2023/01/26 08:13:34;;;;;;;35.45;5.43;;;;;;;23.66;51.92;99851.22;7310398;19;129806;-39
2023/01/26 08:16:04;;;;;;;32.40;5.77;;;;;;;23.74;52.05;99865.28;7307441;19;129454;-40
2023/01/26 08:18:30;;;;;;;28.50;5.97;;;;;;;23.67;52.45;99864.19;7311775;19;129669;-41
2023/01/26 08:20:57;;;;;;;31.50;5.33;;;;;;;23.65;52.42;99866.13;7313159;19;129566;-41
2023/01/26 08:23:22;;;;;;;27.50;5.75;;;;;;;23.63;52.38;99862.84;7311963;19;129652;-41
2023/01/26 08:25:48;;;;;;;59.87;8.17;;;;;;;23.60;52.44;99852.63;7307749;19;129164;-41
2023/01/26 08:28:13;;;;;;;31.33;6.00;;;;;;;23.45;52.71;99855.88;7312293;19;130353;-39
2023/01/26 08:30:39;;;;;;;21.03;5.00;;;;;;;23.51;52.55;99858.75;7312874;19;129092;-40
2023/01/26 08:33:05;;;;;;;20.85;4.47;;;;;;;23.51;53.20;99853.50;7313007;19;129306;-40
2023/01/26 08:35:31;;;;;;;96.60;11.87;;;;;;;23.51;52.74;99856.13;7307771;19;129155;-37
2023/01/26 08:37:57;;;;;;;66.75;8.85;;;;;;;23.53;52.94;99856.81;7311134;19;129970;-40
2023/01/26 08:40:23;;;;;;;39.87;6.57;;;;;;;23.45;53.10;99848.84;7310037;19;130053;-40
2023/01/26 08:42:49;;;;;;;42.33;6.90;;;;;;;23.43;53.45;99853.41;7308329;19;129144;-41
2023/01/26 08:45:15;;;;;;;38.93;6.30;;;;;;;23.36;53.12;99848.88;7305133;19;128904;-39
2023/01/26 08:47:40;;;;;;;42.90;6.40;;;;;;;23.31;53.14;99851.94;7310346;19;129401;-40
2023/01/26 08:50:07;;;;;;;38.33;6.10;;;;;;;23.30;53.24;99850.31;7310630;19;130641;-39
2023/01/26 08:52:32;;;;;;;48.78;7.15;;;;;;;23.24;53.55;99856.06;7308863;19;129699;-40
2023/01/26 08:54:58;;;;;;;49.13;7.35;;;;;;;23.13;51.18;99848.38;7307513;19;129541;-39
2023/01/26 08:57:24;;;;;;;46.55;8.85;;;;;;;22.92;49.20;99837.28;7304375;19;129401;-39
2023/01/26 08:59:49;;;;;;;47.55;8.48;;;;;;;22.90;49.07;99853.16;7306637;19;131213;-39
2023/01/26 09:02:14;;;;;;;40.80;7.37;;;;;;;22.80;48.80;99848.91;7308667;19;129703;-39
2023/01/26 09:04:40;;;;;;;61.07;9.70;;;;;;;22.85;48.90;99858.00;7307742;19;130626;-39
2023/01/26 09:07:05;;;;;;;37.37;7.53;;;;;;;22.82;48.79;99868.78;7305281;19;129403;-40
2023/01/26 09:09:30;;;;;;;17.17;5.90;;;;;;;22.87;49.04;99876.22;7310846;19;129609;-38
2023/01/26 09:11:56;;;;;;;33.63;7.00;;;;;;;22.82;49.19;99871.41;7312393;19;129504;-41
2023/01/26 09:14:22;;;;;;;37.33;7.60;;;;;;;22.82;49.03;99863.53;7308539;19;129299;-40
2023/01/26 09:16:48;;;;;;;42.37;7.77;;;;;;;22.81;49.15;99872.34;7304987;19;129135;-41
2023/01/26 09:19:14;;;;;;;31.07;6.83;;;;;;;22.86;48.60;99871.91;7310372;19;129918;-38
2023/01/26 09:21:39;;;;;;;48.60;8.50;;;;;;;22.88;47.89;99875.22;7310096;19;129789;-38
2023/01/26 09:24:05;;;;;;;85.10;12.97;;;;;;;22.90;47.95;99868.06;7305026;19;129375;-37
2023/01/26 09:26:30;;;;;;;19.03;6.33;;;;;;;23.03;47.82;99879.91;7307079;19;129199;-38
2023/01/26 09:28:56;;;;;;;52.85;9.23;;;;;;;23.15;47.58;99875.31;7307301;19;129173;-39
2023/01/26 09:31:22;;;;;;;34.10;7.37;;;;;;;23.28;46.63;99882.88;7307120;19;130027;-40
2023/01/26 09:33:49;;;;;;;45.70;8.33;;;;;;;23.43;46.28;99877.03;7307561;19;129617;-38
2023/01/26 09:36:14;;;;;;;;;;;;;;;23.46;45.90;99879.38;7303709;19;130189;-39
2023/01/26 09:38:39;;;;;;;34.58;7.40;;;;;;;23.63;45.98;99886.47;7304742;19;129300;-37
2023/01/26 09:41:35;;;;;;;67.87;9.67;;;;;;;23.67;45.46;99885.19;7306293;19;130037;-38
2023/01/26 09:44:08;;;;;;;41.25;7.60;;;;;;;23.83;44.74;99880.13;7308765;19;128875;-38
2023/01/26 09:46:33;;;;;;;36.78;7.00;;;;;;;23.90;45.38;99886.44;7308472;19;129787;-39
2023/01/26 09:49:09;;;;;;;38.87;7.37;;;;;;;23.98;44.16;99883.94;7307383;19;129879;-41
2023/01/26 09:51:43;;;;;;;35.45;7.50;;;;;;;23.97;44.41;99860.41;7310461;19;129632;-41
2023/01/26 09:54:50;;;;;;;23.00;6.10;;;;;;;24.15;44.21;99875.25;7307381;19;129408;-38
2023/01/26 09:57:19;;;;;;;47.80;8.82;;;;;;;24.22;44.60;99878.94;7301716;19;129995;-40
2023/01/26 09:59:57;;;;;;;18.45;6.32;;;;;;;24.44;44.23;99881.09;7307443;19;130043;-40
2023/01/26 10:02:52;;;;;;;27.90;6.22;;;;;;;24.53;44.52;99883.84;7310405;19;130486;-39
2023/01/26 10:06:02;;;;;;;42.10;7.85;;;;;;;24.65;43.88;99891.31;7302275;19;129617;-39
2023/01/26 10:08:28;;;;;;;27.60;6.15;;;;;;;24.67;43.74;99885.91;7305680;19;128917;-40
2023/01/26 10:10:59;;;;;;;45.17;8.17;;;;;;;24.58;44.17;99884.22;7307758;19;128946;-40
2023/01/26 10:13:25;;;;;;;28.63;6.30;;;;;;;24.63;44.12;99881.91;7308939;19;129322;-41
2023/01/26 10:16:00;;;;;;;47.83;8.63;;;;;;;24.50;44.58;99874.44;7304018;19;130024;-41
2023/01/26 10:18:39;;;;;;;40.60;7.80;;;;;;;24.45;44.49;99866.16;7308100;19;129063;-40
2023/01/26 10:21:08;;;;;;;28.77;6.97;;;;;;;24.39;45.13;99877.31;7308710;19;130442;-38
2023/01/26 10:23:34;;;;;;;29.40;6.18;;;;;;;24.33;45.69;99872.63;7308489;19;129374;-38
2023/01/26 10:26:13;;;;;;;46.58;7.40;;;;;;;24.31;45.29;99875.41;7305820;19;129294;-39
2023/01/26 10:28:41;;;;;;;28.52;7.07;;;;;;;24.22;45.69;99865.81;7307533;19;129251;-39
2023/01/26 10:31:25;;;;;;;50.83;8.07;;;;;;;24.25;46.13;99865.50;7305856;19;130021;-40
2023/01/26 10:33:54;;;;;;;44.55;7.68;;;;;;;24.34;45.59;99864.63;7305338;19;130042;-39
2023/01/26 10:36:19;;;;;;;27.33;6.20;;;;;;;24.37;46.09;99859.06;7300646;19;129552;-40
2023/01/26 10:38:46;;;;;;;42.77;7.97;;;;;;;24.43;45.84;99862.88;7305134;19;129670;-40
2023/01/26 10:41:17;;;;;;;45.42;7.75;;;;;;;24.42;45.86;99859.44;7307334;19;129494;-39
2023/01/26 10:44:08;;;;;;;37.80;7.68;;;;;;;24.44;45.49;99849.56;7305849;19;129779;-39
2023/01/26 10:46:36;;;;;;;36.95;6.88;;;;;;;24.47;46.03;99856.34;7306081;19;129856;-40
2023/01/26 10:49:07;;;;;;;46.13;7.80;;;;;;;24.49;45.29;99857.81;7306062;19;128879;-37
2023/01/26 10:51:38;;;;;;;41.83;7.05;;;;;;;24.56;45.12;99857.25;7306757;19;129405;-41
2023/01/26 10:54:26;;;;;;;66.05;8.95;;;;;;;24.55;45.61;99840.63;7303766;19;129675;-41
2023/01/26 10:56:57;;;;;;;40.25;7.38;;;;;;;24.77;45.12;99847.22;7301171;19;129523;-39
2023/01/26 10:59:33;;;;;;;51.33;8.13;;;;;;;24.80;45.00;99847.75;7303004;19;130256;-40
2023/01/26 11:02:23;;;;;;;39.50;7.43;;;;;;;24.66;45.14;99836.94;7308131;19;129493;-38
2023/01/26 11:05:07;;;;;;;45.65;8.18;;;;;;;24.66;45.83;99836.94;7306228;19;130572;-38
2023/01/26 11:07:44;;;;;;;36.55;6.63;;;;;;;24.61;45.58;99836.56;7305505;19;129520;-39
2023/01/26 11:10:15;;;;;;;52.83;8.63;;;;;;;24.51;46.21;99838.47;7304688;19;129433;-36
2023/01/26 11:12:40;;;;;;;24.27;5.53;;;;;;;24.40;45.98;99842.97;7304047;19;129748;-39
2023/01/26 11:15:15;;;;;;;35.10;6.57;;;;;;;24.21;46.35;99840.50;7305518;19;129785;-41
2023/01/26 11:17:56;;;;;;;26.83;5.82;;;;;;;24.11;47.06;99842.38;7303276;19;129275;-39
2023/01/26 11:20:34;;;;;;;31.92;6.80;;;;;;;24.06;46.91;99842.03;7307662;19;129540;-39
2023/01/26 11:23:03;;;;;;;51.85;7.95;;;;;;;24.01;47.35;99839.03;7313583;19;129539;-37
2023/01/26 11:25:37;;;;;;;68.43;10.40;;;;;;;24.03;46.60;99839.66;7311031;19;131506;-39
2023/01/26 11:28:34;;;;;;;42.88;7.22;;;;;;;24.01;46.87;99836.38;7311748;19;130429;-39
2023/01/26 11:31:30;;;;;;;67.57;10.20;;;;;;;24.04;47.20;99830.84;7311703;19;129787;-40
2023/01/26 11:33:58;;;;;;;54.85;8.43;;;;;;;24.03;47.54;99821.28;7309481;19;130642;-39
2023/01/26 11:36:45;;;;;;;31.88;6.05;;;;;;;24.03;47.57;99823.91;7307291;19;129766;-40
2023/01/26 11:39:31;;;;;;;33.53;6.07;;;;;;;24.06;47.51;99823.63;7309956;19;129222;-37
2023/01/26 11:42:27;;;;;;;61.50;8.43;;;;;;;24.07;47.73;99825.28;7310712;19;129552;-39
2023/01/26 11:45:29;;;;;;;54.60;7.70;;;;;;;24.11;48.04;99808.22;7307900;19;129469;-38
2023/01/26 11:48:23;;;;;;;51.47;7.68;;;;;;;24.11;47.54;99808.22;7312510;19;129688;-39
2023/01/26 11:50:54;;;;;;;53.47;7.80;;;;;;;24.08;47.72;99805.91;7312362;19;129504;-38
2023/01/26 11:53:43;;;;;;;25.77;5.63;;;;;;;24.05;48.24;99806.22;7313955;19;128943;-39
2023/01/26 11:56:47;;;;;;;29.27;5.88;;;;;;;23.98;48.46;99797.28;7308108;19;130287;-37
2023/01/26 11:59:15;;;;;;;39.05;6.82;;;;;;;23.94;48.68;99806.41;7312573;19;129660;-39
2023/01/26 12:01:49;;;;;;;38.03;6.65;;;;;;;23.92;48.84;99799.63;7311318;19;129295;-38
2023/01/26 12:04:20;;;;;;;41.90;7.20;;;;;;;23.81;49.04;99798.06;7310257;19;129892;-39
2023/01/26 12:07:10;;;;;;;49.10;6.90;;;;;;;23.74;48.87;99794.38;7307355;19;129547;-41
2023/01/26 12:09:42;;;;;;;31.00;5.93;;;;;;;23.69;49.16;99791.38;7312263;19;129922;-39
2023/01/26 12:12:31;;;;;;;52.50;7.63;;;;;;;23.61;49.54;99788.66;7310075;19;129304;-40